createdAt,value
2018-01-29T00:00:53.573Z,1011.2
2018-01-29T00:01:54.925Z,1011.2
2018-01-29T00:02:56.476Z,1011.1
2018-01-29T00:03:57.150Z,1011.2
2018-01-29T00:04:57.912Z,1011.1
2018-01-29T00:05:58.615Z,1011.2
2018-01-29T00:06:59.345Z,1011.1
2018-01-29T00:08:00.075Z,1011.1
2018-01-29T00:09:00.871Z,1011.1
2018-01-29T00:10:01.667Z,1011.1
2018-01-29T00:11:02.388Z,1011.1
2018-01-29T00:12:03.123Z,1011.1
2018-01-29T00:13:03.872Z,1011.1
2018-01-29T00:14:04.685Z,1011.0
2018-01-29T00:15:05.479Z,1011.1
2018-01-29T00:16:06.294Z,1011.0
2018-01-29T00:17:07.010Z,1011.1
2018-01-29T00:18:07.729Z,1011.1
2018-01-29T00:19:08.500Z,1011.1
2018-01-29T00:20:09.242Z,1011.1
2018-01-29T00:21:09.984Z,1011.1
2018-01-29T00:22:10.781Z,1011.0
2018-01-29T00:23:11.513Z,1011.0
2018-01-29T00:24:12.327Z,1011.0
2018-01-29T00:25:13.737Z,1011.0
2018-01-29T00:26:14.594Z,1011.0
2018-01-29T00:27:15.312Z,1011.0
2018-01-29T00:28:16.053Z,1011.0
2018-01-29T00:29:16.811Z,1011.0
2018-01-29T00:30:17.547Z,1011.0
2018-01-29T00:31:18.292Z,1011.0
2018-01-29T00:32:19.103Z,1010.9
2018-01-29T00:33:19.876Z,1010.9
2018-01-29T00:34:20.654Z,1010.9
2018-01-29T00:35:21.382Z,1010.9
2018-01-29T00:36:22.124Z,1010.8
2018-01-29T00:37:22.862Z,1010.9
2018-01-29T00:38:23.594Z,1010.8
2018-01-29T00:39:24.363Z,1010.7
2018-01-29T00:40:25.167Z,1010.8
2018-01-29T00:41:25.963Z,1010.7
2018-01-29T00:42:26.704Z,1010.7
2018-01-29T00:43:27.424Z,1010.7
2018-01-29T00:44:28.143Z,1010.7
2018-01-29T00:45:28.873Z,1010.7
2018-01-29T00:46:29.650Z,1010.7
2018-01-29T00:47:30.431Z,1010.7
2018-01-29T00:48:31.172Z,1010.8
2018-01-29T00:49:31.908Z,1010.7
2018-01-29T00:50:32.668Z,1010.7
2018-01-29T00:51:33.521Z,1010.7
2018-01-29T00:52:34.309Z,1010.6
2018-01-29T00:53:35.104Z,1010.7
2018-01-29T00:54:35.866Z,1010.7
2018-01-29T00:55:36.615Z,1010.7
2018-01-29T00:56:37.706Z,1010.6
2018-01-29T00:57:38.503Z,1010.6
2018-01-29T00:58:39.219Z,1010.6
2018-01-29T00:59:39.931Z,1010.5
2018-01-29T01:00:40.663Z,1010.6
2018-01-29T01:01:41.391Z,1010.6
2018-01-29T01:02:42.193Z,1010.5
2018-01-29T01:03:42.936Z,1010.5
2018-01-29T01:04:43.740Z,1010.6
2018-01-29T01:05:44.518Z,1010.5
2018-01-29T01:06:45.277Z,1010.5
2018-01-29T01:07:46.044Z,1010.5
2018-01-29T01:08:46.899Z,1010.5
2018-01-29T01:09:47.694Z,1010.5
2018-01-29T01:10:48.416Z,1010.5
2018-01-29T01:11:49.202Z,1010.5
2018-01-29T01:12:49.945Z,1010.4
2018-01-29T01:13:50.751Z,1010.5
2018-01-29T01:14:51.483Z,1010.4
2018-01-29T01:15:52.213Z,1010.4
2018-01-29T01:16:53.016Z,1010.4
2018-01-29T01:17:53.743Z,1010.3
2018-01-29T01:18:54.459Z,1010.4
2018-01-29T01:19:55.440Z,1010.3
2018-01-29T01:20:56.172Z,1010.4
2018-01-29T01:21:56.893Z,1010.4
2018-01-29T01:22:57.621Z,1010.4
2018-01-29T01:23:58.356Z,1010.4
2018-01-29T01:24:59.153Z,1010.4
2018-01-29T01:25:59.890Z,1010.4
2018-01-29T01:27:00.671Z,1010.4
2018-01-29T01:28:01.406Z,1010.4
2018-01-29T01:29:02.152Z,1010.4
2018-01-29T01:30:03.178Z,1010.4
2018-01-29T01:31:03.911Z,1010.4
2018-01-29T01:32:04.649Z,1010.3
2018-01-29T01:33:05.385Z,1010.4
2018-01-29T01:34:06.057Z,1010.4
2018-01-29T01:35:06.849Z,1010.3
2018-01-29T01:36:07.610Z,1010.4
2018-01-29T01:37:08.355Z,1010.3
2018-01-29T01:38:09.156Z,1010.3
2018-01-29T01:39:09.884Z,1010.4
2018-01-29T01:40:10.678Z,1010.3
2018-01-29T01:41:11.459Z,1010.2
2018-01-29T01:42:12.271Z,1010.3
2018-01-29T01:43:13.325Z,1010.3
2018-01-29T01:44:14.054Z,1010.2
2018-01-29T01:45:14.784Z,1010.3
2018-01-29T01:46:15.512Z,1010.2
2018-01-29T01:47:16.221Z,1010.3
2018-01-29T01:48:16.949Z,1010.3
2018-01-29T01:49:17.683Z,1010.3
2018-01-29T01:50:18.525Z,1010.3
2018-01-29T01:51:19.341Z,1010.2
2018-01-29T01:52:20.077Z,1010.2
2018-01-29T01:53:20.852Z,1010.2
2018-01-29T01:54:21.573Z,1010.2
2018-01-29T01:55:22.351Z,1010.1
2018-01-29T01:56:23.176Z,1010.1
2018-01-29T01:57:23.975Z,1010.1
2018-01-29T01:58:24.771Z,1010.0
2018-01-29T01:59:25.491Z,1010.0
2018-01-29T02:00:26.284Z,1010.0
2018-01-29T02:01:27.083Z,1010.0
2018-01-29T02:02:27.822Z,1010.0
2018-01-29T02:03:28.550Z,1010.0
2018-01-29T02:04:29.291Z,1010.1
2018-01-29T02:05:30.016Z,1010.1
2018-01-29T02:06:30.752Z,1010.0
2018-01-29T02:07:31.564Z,1010.0
2018-01-29T02:08:32.662Z,1010.0
2018-01-29T02:09:33.392Z,1010.0
2018-01-29T02:10:34.124Z,1010.0
2018-01-29T02:11:34.920Z,1009.9
2018-01-29T02:12:35.640Z,1010.0
2018-01-29T02:13:36.661Z,1010.0
2018-01-29T02:14:37.402Z,1009.9
2018-01-29T02:15:38.137Z,1009.9
2018-01-29T02:16:38.870Z,1009.9
2018-01-29T02:17:39.606Z,1009.8
2018-01-29T02:18:40.435Z,1009.8
2018-01-29T02:19:41.240Z,1009.8
2018-01-29T02:20:41.948Z,1009.8
2018-01-29T02:21:42.680Z,1009.8
2018-01-29T02:22:43.412Z,1009.6
2018-01-29T02:23:44.207Z,1009.7
2018-01-29T02:24:44.960Z,1009.7
2018-01-29T02:25:45.694Z,1009.7
2018-01-29T02:26:46.414Z,1009.8
2018-01-29T02:27:47.130Z,1009.7
2018-01-29T02:28:47.920Z,1009.7
2018-01-29T02:29:48.643Z,1009.8
2018-01-29T02:30:49.371Z,1009.7
2018-01-29T02:31:50.115Z,1009.7
2018-01-29T02:32:50.924Z,1009.8
2018-01-29T02:33:51.655Z,1009.7
2018-01-29T02:34:52.396Z,1009.8
2018-01-29T02:35:53.134Z,1009.7
2018-01-29T02:36:53.855Z,1009.7
2018-01-29T02:37:54.572Z,1009.7
2018-01-29T02:38:55.302Z,1009.6
2018-01-29T02:39:56.048Z,1009.6
2018-01-29T02:40:56.891Z,1009.7
2018-01-29T02:41:57.621Z,1009.6
2018-01-29T02:42:58.358Z,1009.6
2018-01-29T02:43:59.095Z,1009.6
2018-01-29T02:44:59.891Z,1009.5
2018-01-29T02:46:00.738Z,1009.4
2018-01-29T02:47:01.481Z,1009.5
2018-01-29T02:48:02.210Z,1009.4
2018-01-29T02:49:02.949Z,1009.5
2018-01-29T02:50:03.670Z,1009.5
2018-01-29T02:51:04.456Z,1009.5
2018-01-29T02:52:05.210Z,1009.4
2018-01-29T02:53:05.941Z,1009.4
2018-01-29T02:54:06.673Z,1009.4
2018-01-29T02:55:07.445Z,1009.5
2018-01-29T02:56:08.182Z,1009.4
2018-01-29T02:57:08.938Z,1009.4
2018-01-29T02:58:09.621Z,1009.4
2018-01-29T02:59:10.404Z,1009.5
2018-01-29T03:00:11.161Z,1009.5
2018-01-29T03:01:11.933Z,1009.5
2018-01-29T03:02:12.745Z,1009.5
2018-01-29T03:03:13.416Z,1009.4
2018-01-29T03:04:14.195Z,1009.5
2018-01-29T03:05:14.933Z,1009.4
2018-01-29T03:06:15.654Z,1009.3
2018-01-29T03:07:16.437Z,1009.3
2018-01-29T03:08:17.180Z,1009.3
2018-01-29T03:09:17.931Z,1009.4
2018-01-29T03:10:18.673Z,1009.4
2018-01-29T03:11:19.394Z,1009.3
2018-01-29T03:12:20.202Z,1009.4
2018-01-29T03:13:20.941Z,1009.3
2018-01-29T03:14:21.749Z,1009.3
2018-01-29T03:15:22.532Z,1009.3
2018-01-29T03:16:23.251Z,1009.2
2018-01-29T03:17:23.981Z,1009.2
2018-01-29T03:18:24.764Z,1009.3
2018-01-29T03:19:25.733Z,1009.2
2018-01-29T03:20:26.464Z,1009.3
2018-01-29T03:21:27.240Z,1009.2
2018-01-29T03:22:27.969Z,1009.3
2018-01-29T03:23:28.694Z,1009.3
2018-01-29T03:24:29.480Z,1009.2
2018-01-29T03:25:30.213Z,1009.2
2018-01-29T03:26:30.942Z,1009.2
2018-01-29T03:27:31.682Z,1009.3
2018-01-29T03:28:32.453Z,1009.2
2018-01-29T03:29:33.197Z,1009.1
2018-01-29T03:30:33.937Z,1009.2
2018-01-29T03:31:34.673Z,1009.1
2018-01-29T03:32:35.392Z,1009.1
2018-01-29T03:33:36.482Z,1009.2
2018-01-29T03:34:37.207Z,1009.2
2018-01-29T03:35:37.938Z,1009.1
2018-01-29T03:36:38.751Z,1009.1
2018-01-29T03:37:39.534Z,1009.1
2018-01-29T03:38:40.369Z,1009.1
2018-01-29T03:39:41.104Z,1009.0
2018-01-29T03:40:41.838Z,1009.0
2018-01-29T03:41:42.559Z,1009.1
2018-01-29T03:42:43.326Z,1009.0
2018-01-29T03:43:44.106Z,1009.0
2018-01-29T03:44:44.844Z,1008.9
2018-01-29T03:45:45.574Z,1008.9
2018-01-29T03:46:46.310Z,1008.9
2018-01-29T03:47:47.070Z,1008.9
2018-01-29T03:48:47.912Z,1008.9
2018-01-29T03:49:48.700Z,1008.9
2018-01-29T03:50:49.434Z,1008.9
2018-01-29T03:51:50.191Z,1008.9
2018-01-29T03:52:50.933Z,1008.9
2018-01-29T03:53:51.652Z,1008.9
2018-01-29T03:54:52.398Z,1008.9
2018-01-29T03:55:53.170Z,1008.8
2018-01-29T03:56:53.882Z,1008.8
2018-01-29T03:57:54.622Z,1008.8
2018-01-29T03:58:55.392Z,1008.9
2018-01-29T03:59:56.126Z,1008.9
2018-01-29T04:00:56.840Z,1008.9
2018-01-29T04:01:57.570Z,1008.9
2018-01-29T04:02:58.309Z,1008.9
2018-01-29T04:03:59.321Z,1008.8
2018-01-29T04:05:00.053Z,1008.8
2018-01-29T04:06:00.767Z,1008.8
2018-01-29T04:07:01.550Z,1008.9
2018-01-29T04:08:02.285Z,1008.9
2018-01-29T04:09:03.069Z,1008.7
2018-01-29T04:10:03.802Z,1008.9
2018-01-29T04:11:04.533Z,1008.8
2018-01-29T04:12:05.343Z,1008.8
2018-01-29T04:13:06.074Z,1008.8
2018-01-29T04:14:06.892Z,1008.7
2018-01-29T04:15:07.622Z,1008.8
2018-01-29T04:16:08.339Z,1008.7
2018-01-29T04:17:09.068Z,1008.8
2018-01-29T04:18:09.780Z,1008.7
2018-01-29T04:19:10.572Z,1008.7
2018-01-29T04:20:11.293Z,1008.7
2018-01-29T04:21:12.096Z,1008.7
2018-01-29T04:22:12.829Z,1008.7
2018-01-29T04:23:13.547Z,1008.7
2018-01-29T04:24:14.281Z,1008.6
2018-01-29T04:25:15.008Z,1008.6
2018-01-29T04:26:15.740Z,1008.6
2018-01-29T04:27:16.471Z,1008.6
2018-01-29T04:28:17.198Z,1008.6
2018-01-29T04:29:17.940Z,1008.6
2018-01-29T04:30:18.778Z,1008.6
2018-01-29T04:31:19.494Z,1008.6
2018-01-29T04:32:20.221Z,1008.6
2018-01-29T04:33:20.949Z,1008.5
2018-01-29T04:34:21.741Z,1008.6
2018-01-29T04:35:22.483Z,1008.5
2018-01-29T04:36:23.277Z,1008.5
2018-01-29T04:37:24.048Z,1008.6
2018-01-29T04:38:24.779Z,1008.6
2018-01-29T04:39:25.504Z,1008.5
2018-01-29T04:40:26.228Z,1008.6
2018-01-29T04:41:26.976Z,1008.6
2018-01-29T04:42:27.690Z,1008.6
2018-01-29T04:43:28.407Z,1008.6
2018-01-29T04:44:29.131Z,1008.5
2018-01-29T04:45:29.864Z,1008.6
2018-01-29T04:46:30.593Z,1008.6
2018-01-29T04:47:31.327Z,1008.5
2018-01-29T04:48:32.060Z,1008.5
2018-01-29T04:49:32.858Z,1008.5
2018-01-29T04:50:33.587Z,1008.5
2018-01-29T04:51:34.398Z,1008.5
2018-01-29T04:52:35.129Z,1008.5
2018-01-29T04:53:35.887Z,1008.4
2018-01-29T04:54:36.621Z,1008.4
2018-01-29T04:55:37.350Z,1008.4
2018-01-29T04:56:38.079Z,1008.5
2018-01-29T04:57:38.806Z,1008.3
2018-01-29T04:58:39.788Z,1008.4
2018-01-29T04:59:40.503Z,1008.3
2018-01-29T05:00:41.327Z,1008.4
2018-01-29T05:01:42.051Z,1008.4
2018-01-29T05:02:42.774Z,1008.4
2018-01-29T05:03:43.748Z,1008.4
2018-01-29T05:04:44.467Z,1008.4
2018-01-29T05:05:45.198Z,1008.4
2018-01-29T05:06:45.928Z,1008.4
2018-01-29T05:07:46.657Z,1008.4
2018-01-29T05:08:47.517Z,1008.4
2018-01-29T05:09:48.241Z,1008.4
2018-01-29T05:10:48.967Z,1008.4
2018-01-29T05:11:49.700Z,1008.5
2018-01-29T05:12:50.426Z,1008.5
2018-01-29T05:13:51.158Z,1008.4
2018-01-29T05:14:51.899Z,1008.4
2018-01-29T05:15:52.935Z,1008.4
2018-01-29T05:16:53.685Z,1008.4
2018-01-29T05:17:54.470Z,1008.5
2018-01-29T05:18:55.199Z,1008.4
2018-01-29T05:19:55.932Z,1008.4
2018-01-29T05:20:56.655Z,1008.4
2018-01-29T05:21:57.383Z,1008.3
2018-01-29T05:22:58.113Z,1008.5
2018-01-29T05:23:58.889Z,1008.3
2018-01-29T05:24:59.615Z,1008.3
2018-01-29T05:26:00.348Z,1008.4
2018-01-29T05:27:01.077Z,1008.4
2018-01-29T05:28:01.810Z,1008.4
2018-01-29T05:29:02.541Z,1008.3
2018-01-29T05:30:03.270Z,1008.4
2018-01-29T05:31:04.028Z,1008.4
2018-01-29T05:32:04.745Z,1008.4
2018-01-29T05:33:05.467Z,1008.4
2018-01-29T05:34:06.189Z,1008.2
2018-01-29T05:35:06.918Z,1008.3
2018-01-29T05:36:07.709Z,1008.3
2018-01-29T05:37:08.435Z,1008.3
2018-01-29T05:38:09.243Z,1008.3
2018-01-29T05:39:10.071Z,1008.3
2018-01-29T05:40:10.802Z,1008.3
2018-01-29T05:41:11.571Z,1008.2
2018-01-29T05:42:12.300Z,1008.2
2018-01-29T05:43:13.036Z,1008.1
2018-01-29T05:44:13.848Z,1008.2
2018-01-29T05:45:14.580Z,1008.4
2018-01-29T05:46:15.370Z,1008.3
2018-01-29T05:47:16.101Z,1008.3
2018-01-29T05:48:16.831Z,1008.3
2018-01-29T05:49:17.562Z,1008.2
2018-01-29T05:50:18.357Z,1008.2
2018-01-29T05:51:19.192Z,1008.2
2018-01-29T05:52:19.921Z,1008.2
2018-01-29T05:53:20.650Z,1008.1
2018-01-29T05:54:21.370Z,1008.2
2018-01-29T05:55:22.118Z,1008.2
2018-01-29T05:56:22.905Z,1008.3
2018-01-29T05:57:23.630Z,1008.2
2018-01-29T05:58:24.368Z,1008.2
2018-01-29T05:59:25.110Z,1008.1
2018-01-29T06:00:25.870Z,1008.1
2018-01-29T06:01:26.900Z,1008.1
2018-01-29T06:02:27.628Z,1008.0
2018-01-29T06:03:28.352Z,1008.1
2018-01-29T06:04:29.090Z,1008.1
2018-01-29T06:05:29.808Z,1008.2
2018-01-29T06:06:30.527Z,1008.1
2018-01-29T06:07:31.260Z,1008.3
2018-01-29T06:08:31.959Z,1008.2
2018-01-29T06:09:32.761Z,1008.1
2018-01-29T06:10:33.483Z,1008.2
2018-01-29T06:11:34.542Z,1008.2
2018-01-29T06:12:35.335Z,1008.2
2018-01-29T06:13:36.071Z,1008.2
2018-01-29T06:14:36.798Z,1008.2
2018-01-29T06:15:37.537Z,1008.2
2018-01-29T06:16:38.280Z,1008.2
2018-01-29T06:17:39.067Z,1008.3
2018-01-29T06:18:39.883Z,1008.2
2018-01-29T06:19:40.599Z,1008.3
2018-01-29T06:20:41.341Z,1008.3
2018-01-29T06:21:42.055Z,1008.3
2018-01-29T06:22:42.786Z,1008.3
2018-01-29T06:23:43.534Z,1008.2
2018-01-29T06:24:44.261Z,1008.2
2018-01-29T06:25:44.977Z,1008.3
2018-01-29T06:26:45.700Z,1008.2
2018-01-29T06:27:46.479Z,1008.2
2018-01-29T06:28:47.230Z,1008.3
2018-01-29T06:29:48.008Z,1008.2
2018-01-29T06:30:48.737Z,1008.2
2018-01-29T06:31:49.553Z,1008.2
2018-01-29T06:32:50.654Z,1008.1
2018-01-29T06:33:51.490Z,1008.1
2018-01-29T06:34:52.251Z,1008.1
2018-01-29T06:35:52.996Z,1008.1
2018-01-29T06:36:53.771Z,1008.1
2018-01-29T06:37:54.514Z,1008.1
2018-01-29T06:38:55.249Z,1008.1
2018-01-29T06:39:56.015Z,1008.0
2018-01-29T06:40:56.811Z,1008.1
2018-01-29T06:41:57.616Z,1008.1
2018-01-29T06:42:58.340Z,1008.1
2018-01-29T06:43:59.217Z,1008.1
2018-01-29T06:44:59.958Z,1008.0
2018-01-29T06:46:00.700Z,1008.1
2018-01-29T06:47:01.438Z,1008.1
2018-01-29T06:48:02.182Z,1008.1
2018-01-29T06:49:03.230Z,1008.1
2018-01-29T06:50:03.986Z,1008.1
2018-01-29T06:51:04.783Z,1008.0
2018-01-29T06:52:05.511Z,1008.1
2018-01-29T06:53:06.244Z,1008.0
2018-01-29T06:54:07.018Z,1008.2
2018-01-29T06:55:07.756Z,1008.0
2018-01-29T06:56:08.606Z,1008.0
2018-01-29T06:57:09.281Z,1008.0
2018-01-29T06:58:10.086Z,1008.0
2018-01-29T06:59:11.114Z,1007.9
2018-01-29T07:00:11.890Z,1007.9
2018-01-29T07:01:12.620Z,1007.9
2018-01-29T07:02:13.352Z,1007.9
2018-01-29T07:03:14.090Z,1007.9
2018-01-29T07:04:14.856Z,1007.9
2018-01-29T07:05:15.589Z,1007.9
2018-01-29T07:06:16.325Z,1007.9
2018-01-29T07:07:17.068Z,1008.0
2018-01-29T07:08:17.801Z,1007.9
2018-01-29T07:09:18.824Z,1007.9
2018-01-29T07:10:19.560Z,1007.9
2018-01-29T07:11:20.316Z,1007.9
2018-01-29T07:12:21.065Z,1007.9
2018-01-29T07:13:21.848Z,1007.9
2018-01-29T07:14:22.578Z,1007.9
2018-01-29T07:15:23.318Z,1007.9
2018-01-29T07:16:24.350Z,1007.9
2018-01-29T07:17:25.080Z,1007.8
2018-01-29T07:18:25.918Z,1008.0
2018-01-29T07:19:26.661Z,1008.0
2018-01-29T07:20:27.391Z,1008.0
2018-01-29T07:21:28.429Z,1007.9
2018-01-29T07:22:29.202Z,1008.0
2018-01-29T07:23:29.933Z,1008.0
2018-01-29T07:24:30.720Z,1007.9
2018-01-29T07:25:31.452Z,1007.9
2018-01-29T07:26:32.191Z,1007.9
2018-01-29T07:27:32.920Z,1007.9
2018-01-29T07:28:33.661Z,1007.8
2018-01-29T07:29:34.381Z,1007.9
2018-01-29T07:30:35.130Z,1007.9
2018-01-29T07:31:35.882Z,1007.8
2018-01-29T07:32:36.628Z,1007.9
2018-01-29T07:33:37.371Z,1007.8
2018-01-29T07:34:38.185Z,1007.8
2018-01-29T07:35:38.968Z,1007.7
2018-01-29T07:36:39.714Z,1007.8
2018-01-29T07:37:40.505Z,1007.8
2018-01-29T07:38:41.238Z,1007.9
2018-01-29T07:39:41.946Z,1007.9
2018-01-29T07:40:42.733Z,1008.0
2018-01-29T07:41:43.476Z,1007.9
2018-01-29T07:42:44.271Z,1008.0
2018-01-29T07:43:45.001Z,1008.0
2018-01-29T07:44:45.731Z,1008.0
2018-01-29T07:45:46.455Z,1008.0
2018-01-29T07:46:47.521Z,1008.0
2018-01-29T07:47:48.271Z,1007.9
2018-01-29T07:48:49.007Z,1007.9
2018-01-29T07:49:49.740Z,1007.8
2018-01-29T07:50:50.477Z,1007.9
2018-01-29T07:51:51.583Z,1007.9
2018-01-29T07:52:52.403Z,1007.9
2018-01-29T07:53:53.188Z,1007.8
2018-01-29T07:54:53.929Z,1007.9
2018-01-29T07:55:54.824Z,1007.8
2018-01-29T07:56:55.561Z,1007.9
2018-01-29T07:57:56.342Z,1007.8
2018-01-29T07:58:57.065Z,1007.9
2018-01-29T07:59:57.825Z,1007.9
2018-01-29T08:00:58.567Z,1007.8
2018-01-29T08:01:59.295Z,1007.9
2018-01-29T08:03:00.415Z,1007.8
2018-01-29T08:04:01.146Z,1007.8
2018-01-29T08:05:01.869Z,1007.8
2018-01-29T08:06:02.658Z,1007.8
2018-01-29T08:07:03.481Z,1007.8
2018-01-29T08:08:04.248Z,1007.8
2018-01-29T08:09:05.327Z,1007.9
2018-01-29T08:10:06.012Z,1007.9
2018-01-29T08:11:06.737Z,1007.8
2018-01-29T08:12:07.490Z,1007.9
2018-01-29T08:13:08.227Z,1007.8
2018-01-29T08:14:09.008Z,1007.9
2018-01-29T08:15:09.745Z,1007.8
2018-01-29T08:16:10.468Z,1007.8
2018-01-29T08:17:11.201Z,1007.8
2018-01-29T08:18:11.929Z,1007.8
2018-01-29T08:19:12.753Z,1007.9
2018-01-29T08:20:13.532Z,1007.8
2018-01-29T08:21:14.348Z,1007.8
2018-01-29T08:22:15.080Z,1007.8
2018-01-29T08:23:15.823Z,1007.8
2018-01-29T08:24:16.987Z,1007.9
2018-01-29T08:25:17.755Z,1007.8
2018-01-29T08:26:18.539Z,1007.8
2018-01-29T08:27:19.270Z,1007.9
2018-01-29T08:28:20.011Z,1007.9
2018-01-29T08:29:20.732Z,1008.0
2018-01-29T08:30:21.857Z,1008.0
2018-01-29T08:31:22.608Z,1007.9
2018-01-29T08:32:23.351Z,1007.9
2018-01-29T08:33:24.046Z,1008.0
2018-01-29T08:34:24.782Z,1007.9
2018-01-29T08:35:25.568Z,1008.0
2018-01-29T08:36:26.297Z,1008.0
2018-01-29T08:37:27.032Z,1007.9
2018-01-29T08:38:27.762Z,1007.9
2018-01-29T08:39:28.567Z,1007.9
2018-01-29T08:40:29.325Z,1008.0
2018-01-29T08:41:30.070Z,1007.9
2018-01-29T08:42:31.106Z,1008.0
2018-01-29T08:43:31.834Z,1008.0
2018-01-29T08:44:32.562Z,1007.9
2018-01-29T08:45:33.293Z,1008.0
2018-01-29T08:46:34.053Z,1008.0
2018-01-29T08:47:34.898Z,1007.9
2018-01-29T08:48:35.638Z,1008.0
2018-01-29T08:49:36.377Z,1007.9
2018-01-29T08:50:37.108Z,1007.9
2018-01-29T08:51:37.856Z,1008.0
2018-01-29T08:52:38.607Z,1008.0
2018-01-29T08:53:39.714Z,1007.9
2018-01-29T08:54:40.750Z,1007.9
2018-01-29T08:55:41.421Z,1007.9
2018-01-29T08:56:42.140Z,1007.8
2018-01-29T08:57:42.884Z,1007.6
2018-01-29T08:58:43.717Z,1007.7
2018-01-29T08:59:44.461Z,1007.8
2018-01-29T09:00:45.190Z,1007.7
2018-01-29T09:01:45.913Z,1007.7
2018-01-29T09:02:46.649Z,1007.8
2018-01-29T09:03:47.452Z,1007.7
2018-01-29T09:04:48.188Z,1007.7
2018-01-29T09:05:49.556Z,1007.7
2018-01-29T09:06:50.561Z,1007.7
2018-01-29T09:07:51.783Z,1007.7
2018-01-29T09:08:52.489Z,1007.8
2018-01-29T09:09:53.228Z,1007.7
2018-01-29T09:10:53.962Z,1007.7
2018-01-29T09:11:54.943Z,1007.7
2018-01-29T09:12:55.685Z,1007.7
2018-01-29T09:13:56.436Z,1007.7
2018-01-29T09:14:57.211Z,1007.8
2018-01-29T09:15:57.946Z,1007.8
2018-01-29T09:16:58.982Z,1007.7
2018-01-29T09:17:59.795Z,1007.6
2018-01-29T09:19:00.532Z,1007.7
2018-01-29T09:20:01.293Z,1007.6
2018-01-29T09:21:02.009Z,1007.7
2018-01-29T09:22:02.819Z,1007.6
2018-01-29T09:23:03.554Z,1007.6
2018-01-29T09:24:04.385Z,1007.7
2018-01-29T09:25:05.151Z,1007.7
2018-01-29T09:26:05.883Z,1007.7
2018-01-29T09:27:06.982Z,1007.7
2018-01-29T09:28:08.693Z,1007.6
2018-01-29T09:29:09.752Z,1007.6
2018-01-29T09:30:10.511Z,1007.6
2018-01-29T09:31:11.261Z,1007.6
2018-01-29T09:32:11.999Z,1007.5
2018-01-29T09:33:12.740Z,1007.4
2018-01-29T09:34:13.476Z,1007.6
2018-01-29T09:35:14.215Z,1007.5
2018-01-29T09:36:14.946Z,1007.5
2018-01-29T09:37:16.055Z,1007.4
2018-01-29T09:38:16.799Z,1007.5
2018-01-29T09:39:17.544Z,1007.4
2018-01-29T09:40:18.338Z,1007.4
2018-01-29T09:41:19.072Z,1007.4
2018-01-29T09:42:19.940Z,1007.4
2018-01-29T09:43:20.761Z,1007.4
2018-01-29T09:44:21.545Z,1007.5
2018-01-29T09:45:22.358Z,1007.4
2018-01-29T09:46:24.247Z,1007.4
2018-01-29T09:47:24.948Z,1007.4
2018-01-29T09:48:25.696Z,1007.4
2018-01-29T09:49:26.464Z,1007.4
2018-01-29T09:50:27.210Z,1007.4
2018-01-29T09:51:27.943Z,1007.5
2018-01-29T09:52:28.700Z,1007.4
2018-01-29T09:53:29.484Z,1007.5
2018-01-29T09:54:30.211Z,1007.5
2018-01-29T09:55:30.953Z,1007.5
2018-01-29T09:56:31.738Z,1007.4
2018-01-29T09:57:32.500Z,1007.5
2018-01-29T09:58:33.241Z,1007.5
2018-01-29T09:59:33.976Z,1007.5
2018-01-29T10:00:34.789Z,1007.4
2018-01-29T10:01:35.576Z,1007.4
2018-01-29T10:02:36.320Z,1007.5
2018-01-29T10:03:37.047Z,1007.5
2018-01-29T10:04:37.788Z,1007.5
2018-01-29T10:05:38.531Z,1007.5
2018-01-29T10:06:39.280Z,1007.5
2018-01-29T10:07:40.019Z,1007.4
2018-01-29T10:08:40.823Z,1007.3
2018-01-29T10:09:41.561Z,1007.4
2018-01-29T10:10:42.309Z,1007.4
2018-01-29T10:11:43.041Z,1007.4
2018-01-29T10:12:43.808Z,1007.3
2018-01-29T10:13:44.625Z,1007.3
2018-01-29T10:14:45.424Z,1007.4
2018-01-29T10:15:46.245Z,1007.3
2018-01-29T10:16:46.995Z,1007.2
2018-01-29T10:17:47.785Z,1007.3
2018-01-29T10:18:48.521Z,1007.3
2018-01-29T10:19:49.260Z,1007.2
2018-01-29T10:20:50.069Z,1007.2
2018-01-29T10:21:50.807Z,1007.2
2018-01-29T10:22:51.554Z,1007.2
2018-01-29T10:23:52.330Z,1007.2
2018-01-29T10:24:53.058Z,1007.1
2018-01-29T10:25:53.787Z,1007.2
2018-01-29T10:26:54.517Z,1007.0
2018-01-29T10:27:55.262Z,1007.1
2018-01-29T10:28:55.990Z,1007.0
2018-01-29T10:29:56.721Z,1007.0
2018-01-29T10:30:57.473Z,1007.0
2018-01-29T10:31:58.217Z,1007.0
2018-01-29T10:32:59.257Z,1007.0
2018-01-29T10:34:00.039Z,1006.9
2018-01-29T10:35:00.775Z,1006.9
2018-01-29T10:36:01.482Z,1006.9
2018-01-29T10:37:02.209Z,1006.9
2018-01-29T10:38:02.928Z,1006.9
2018-01-29T10:39:03.663Z,1006.9
2018-01-29T10:40:04.401Z,1006.9
2018-01-29T10:41:05.148Z,1007.0
2018-01-29T10:42:05.882Z,1006.8
2018-01-29T10:43:06.631Z,1006.9
2018-01-29T10:44:07.358Z,1006.9
2018-01-29T10:45:08.100Z,1006.9
2018-01-29T10:46:08.831Z,1006.9
2018-01-29T10:47:09.559Z,1006.8
2018-01-29T10:48:10.598Z,1006.8
2018-01-29T10:49:11.354Z,1006.8
2018-01-29T10:50:12.066Z,1006.7
2018-01-29T10:51:12.802Z,1006.7
2018-01-29T10:52:13.567Z,1006.7
2018-01-29T10:53:14.597Z,1006.6
2018-01-29T10:54:15.329Z,1006.6
2018-01-29T10:55:16.071Z,1006.7
2018-01-29T10:56:16.845Z,1006.6
2018-01-29T10:57:17.646Z,1006.6
2018-01-29T10:58:18.708Z,1006.6
2018-01-29T10:59:19.444Z,1006.6
2018-01-29T11:00:20.192Z,1006.4
2018-01-29T11:01:21.002Z,1006.6
2018-01-29T11:02:21.732Z,1006.5
2018-01-29T11:03:22.523Z,1006.5
2018-01-29T11:04:23.304Z,1006.5
2018-01-29T11:05:24.111Z,1006.5
2018-01-29T11:06:24.863Z,1006.5
2018-01-29T11:07:25.571Z,1006.4
2018-01-29T11:08:26.386Z,1006.4
2018-01-29T11:09:27.177Z,1006.4
2018-01-29T11:10:27.955Z,1006.4
2018-01-29T11:11:28.677Z,1006.3
2018-01-29T11:12:29.413Z,1006.4
2018-01-29T11:13:30.398Z,1006.4
2018-01-29T11:14:31.127Z,1006.4
2018-01-29T11:15:31.850Z,1006.3
2018-01-29T11:16:32.646Z,1006.3
2018-01-29T11:17:33.466Z,1006.4
2018-01-29T11:18:34.212Z,1006.3
2018-01-29T11:19:34.998Z,1006.3
2018-01-29T11:20:35.736Z,1006.3
2018-01-29T11:21:36.478Z,1006.4
2018-01-29T11:22:37.208Z,1006.3
2018-01-29T11:23:37.962Z,1006.3
2018-01-29T11:24:38.741Z,1006.3
2018-01-29T11:25:39.486Z,1006.3
2018-01-29T11:26:40.213Z,1006.2
2018-01-29T11:27:40.952Z,1006.1
2018-01-29T11:28:41.704Z,1006.2
2018-01-29T11:29:42.526Z,1006.2
2018-01-29T11:30:43.343Z,1006.2
2018-01-29T11:31:44.159Z,1006.1
2018-01-29T11:32:44.922Z,1006.2
2018-01-29T11:33:45.718Z,1006.1
2018-01-29T11:34:46.809Z,1006.1
2018-01-29T11:35:47.537Z,1006.1
2018-01-29T11:36:48.278Z,1006.0
2018-01-29T11:37:49.021Z,1006.0
2018-01-29T11:38:49.761Z,1005.9
2018-01-29T11:39:50.795Z,1005.9
2018-01-29T11:40:51.583Z,1006.0
2018-01-29T11:41:52.368Z,1005.9
2018-01-29T11:42:53.087Z,1005.9
2018-01-29T11:43:53.824Z,1005.8
2018-01-29T11:44:54.571Z,1005.7
2018-01-29T11:45:55.318Z,1005.8
2018-01-29T11:46:56.129Z,1005.8
2018-01-29T11:47:56.866Z,1005.9
2018-01-29T11:48:57.615Z,1005.8
2018-01-29T11:49:58.362Z,1005.8
2018-01-29T11:50:59.171Z,1005.8
2018-01-29T11:51:59.916Z,1005.7
2018-01-29T11:53:00.722Z,1005.7
2018-01-29T11:54:01.502Z,1005.7
2018-01-29T11:55:02.275Z,1005.6
2018-01-29T11:56:02.969Z,1005.6
2018-01-29T11:57:03.711Z,1005.7
2018-01-29T11:58:04.460Z,1005.7
2018-01-29T11:59:05.208Z,1005.6
2018-01-29T12:00:05.955Z,1005.6
2018-01-29T12:01:06.699Z,1005.5
2018-01-29T12:02:07.495Z,1005.6
2018-01-29T12:03:08.229Z,1005.6
2018-01-29T12:04:08.979Z,1005.5
2018-01-29T12:05:09.689Z,1005.5
2018-01-29T12:06:10.421Z,1005.5
2018-01-29T12:07:11.174Z,1005.5
2018-01-29T12:08:11.940Z,1005.4
2018-01-29T12:09:12.656Z,1005.4
2018-01-29T12:10:13.441Z,1005.5
2018-01-29T12:11:14.183Z,1005.4
2018-01-29T12:12:15.035Z,1005.3
2018-01-29T12:13:15.827Z,1005.5
2018-01-29T12:14:16.574Z,1005.4
2018-01-29T12:15:17.308Z,1005.3
2018-01-29T12:16:18.051Z,1005.4
2018-01-29T12:17:19.186Z,1005.3
2018-01-29T12:18:19.923Z,1005.3
2018-01-29T12:19:20.660Z,1005.3
2018-01-29T12:20:21.402Z,1005.3
2018-01-29T12:21:22.145Z,1005.3
2018-01-29T12:22:23.153Z,1005.4
2018-01-29T12:23:23.906Z,1005.3
2018-01-29T12:24:24.696Z,1005.3
2018-01-29T12:25:25.431Z,1005.3
2018-01-29T12:26:26.238Z,1005.2
2018-01-29T12:27:27.006Z,1005.3
2018-01-29T12:28:27.829Z,1005.2
2018-01-29T12:29:28.580Z,1005.2
2018-01-29T12:30:29.399Z,1005.2
2018-01-29T12:31:30.099Z,1005.3
2018-01-29T12:32:30.924Z,1005.2
2018-01-29T12:33:31.711Z,1005.3
2018-01-29T12:34:32.450Z,1005.3
2018-01-29T12:35:33.188Z,1005.4
2018-01-29T12:36:33.930Z,1005.2
2018-01-29T12:37:34.675Z,1005.3
2018-01-29T12:38:35.489Z,1005.2